Pagrindinis puslapis
METAR-TAF:

METAR-TAF

Oro uostai :

Kittilä, Suomija

platuma: 67-42N, ilguma: 024-51E, Aukštis: 196 m

Dabartinis oras

Ataskaita buvo paskelbta 27 minutes, ne 15:50 UTC
Vėjas 2 kt iš Šiaurės/Šiaurės Vakarų
Temperatūra -7°C
Drėgmė 93%
Slėgis 978 hPa
Matomumas: 6000 m
Apsiniaukę ne aukštis 300 ft
sniegas

METAR: EFKT 071550Z 34002KT 6000 -SN OVC003 M07/M08 Q0978

Laikas: 18:17 (16:17 UTC)

Prognozė

Ataskaita buvo paskelbta 1 valandą ir 39 minutes, ne 14:38 UTC
Prognozė galioja nuo 07 metu 15 UTC su 07 metu 17 UTC
Vėjas 3 kt iš Pietų/Pietryčių
Matomumas: 0700 m
ne aukštis 200 ft
įšaldymas rūko
Laikinai
nuo 07 metu 15 UTC su 07 metu 17 UTC
Matomumas: 3000 m
Su prošvaistėmis ne aukštis 100 ft
rūkana

TAF: EFKT 071438Z 0715/0717 16003KT 0700 FZFG VV002 TEMPO 0715/0717 3000 BR BKN001

Orai ataskaitas ir orų prognozės (METAR, TAF).

turimą stotys yra geltonos ir raudonos taškus žemėlapyje.

Perkelti pele per norėdami pamatyti stoties vardą.

Tada spustelėkite, norėdami matyti oro stebėjimo ir prognozės.

Norėdami pakeisti žemėlapį: spustelėkite ant žalios mygtukų su juodo kryžiaus žemyn,; žalią mygtuką su brūkšneliu, jei norite nutolinti; arba žalių rodyklių gretimoms žemėlapius.


METAR-TAF: